sensor_id;sensor_type;location;lat;lon;timestamp;P1;durP1;ratioP1;P2;durP2;ratioP2
80111;SDS011;69421;51.062;3.728;2024-02-16T00:00:00;2.90;;;1.60;;
80111;SDS011;69421;51.062;3.728;2024-02-16T00:02:26;4.32;;;2.47;;
80111;SDS011;69421;51.062;3.728;2024-02-16T00:04:52;2.60;;;1.75;;
80111;SDS011;69421;51.062;3.728;2024-02-16T00:07:17;2.97;;;2.22;;
80111;SDS011;69421;51.062;3.728;2024-02-16T00:09:46;3.95;;;1.80;;
80111;SDS011;69421;51.062;3.728;2024-02-16T00:12:11;4.60;;;2.33;;
80111;SDS011;69421;51.062;3.728;2024-02-16T00:14:37;3.30;;;1.95;;
80111;SDS011;69421;51.062;3.728;2024-02-16T00:17:02;5.03;;;2.20;;
80111;SDS011;69421;51.062;3.728;2024-02-16T00:19:28;4.10;;;1.73;;
80111;SDS011;69421;51.062;3.728;2024-02-16T00:21:53;3.08;;;1.63;;
80111;SDS011;69421;51.062;3.728;2024-02-16T00:24:20;6.60;;;2.13;;
80111;SDS011;69421;51.062;3.728;2024-02-16T00:26:46;4.90;;;1.90;;
80111;SDS011;69421;51.062;3.728;2024-02-16T00:29:11;4.15;;;2.33;;
80111;SDS011;69421;51.062;3.728;2024-02-16T00:31:37;3.90;;;2.03;;
80111;SDS011;69421;51.062;3.728;2024-02-16T00:34:03;3.47;;;2.60;;
80111;SDS011;69421;51.062;3.728;2024-02-16T00:36:28;4.63;;;2.00;;
80111;SDS011;69421;51.062;3.728;2024-02-16T00:38:55;3.88;;;1.67;;
80111;SDS011;69421;51.062;3.728;2024-02-16T00:41:21;4.72;;;2.50;;
80111;SDS011;69421;51.062;3.728;2024-02-16T00:43:48;3.67;;;1.83;;
80111;SDS011;69421;51.062;3.728;2024-02-16T00:46:14;3.53;;;1.70;;
80111;SDS011;69421;51.062;3.728;2024-02-16T00:48:40;4.72;;;2.10;;
80111;SDS011;69421;51.062;3.728;2024-02-16T00:51:05;4.35;;;1.85;;
80111;SDS011;69421;51.062;3.728;2024-02-16T00:53:30;4.53;;;1.63;;
80111;SDS011;69421;51.062;3.728;2024-02-16T00:55:56;3.80;;;1.73;;
80111;SDS011;69421;51.062;3.728;2024-02-16T00:58:21;6.75;;;2.28;;
80111;SDS011;69421;51.062;3.728;2024-02-16T01:00:47;5.20;;;1.83;;
80111;SDS011;69421;51.062;3.728;2024-02-16T01:03:12;2.17;;;1.17;;
80111;SDS011;69421;51.062;3.728;2024-02-16T01:05:39;3.53;;;1.90;;
80111;SDS011;69421;51.062;3.728;2024-02-16T01:08:06;4.05;;;1.80;;
80111;SDS011;69421;51.062;3.728;2024-02-16T01:10:31;2.83;;;1.50;;
80111;SDS011;69421;51.062;3.728;2024-02-16T01:12:57;4.32;;;1.90;;
80111;SDS011;69421;51.062;3.728;2024-02-16T01:15:22;3.10;;;1.83;;
80111;SDS011;69421;51.062;3.728;2024-02-16T01:17:48;3.03;;;1.90;;
80111;SDS011;69421;51.062;3.728;2024-02-16T01:20:13;3.20;;;1.87;;
80111;SDS011;69421;51.062;3.728;2024-02-16T01:22:40;3.53;;;1.57;;
80111;SDS011;69421;51.062;3.728;2024-02-16T01:25:07;3.65;;;2.00;;
80111;SDS011;69421;51.062;3.728;2024-02-16T01:27:33;3.72;;;1.98;;
80111;SDS011;69421;51.062;3.728;2024-02-16T01:29:59;3.92;;;1.98;;
80111;SDS011;69421;51.062;3.728;2024-02-16T01:32:25;3.60;;;1.60;;
80111;SDS011;69421;51.062;3.728;2024-02-16T01:34:51;7.30;;;2.47;;
80111;SDS011;69421;51.062;3.728;2024-02-16T01:37:16;5.13;;;2.13;;
80111;SDS011;69421;51.062;3.728;2024-02-16T01:39:42;4.37;;;2.10;;
80111;SDS011;69421;51.062;3.728;2024-02-16T01:42:07;2.58;;;1.63;;
80111;SDS011;69421;51.062;3.728;2024-02-16T01:44:32;3.55;;;1.75;;
80111;SDS011;69421;51.062;3.728;2024-02-16T01:46:58;3.13;;;2.20;;
80111;SDS011;69421;51.062;3.728;2024-02-16T01:49:23;3.97;;;2.00;;
80111;SDS011;69421;51.062;3.728;2024-02-16T01:51:49;3.10;;;2.60;;
80111;SDS011;69421;51.062;3.728;2024-02-16T01:54:14;2.63;;;1.80;;
80111;SDS011;69421;51.062;3.728;2024-02-16T01:56:42;3.50;;;2.38;;
80111;SDS011;69421;51.062;3.728;2024-02-16T01:59:08;3.60;;;2.20;;
80111;SDS011;69421;51.062;3.728;2024-02-16T02:01:34;2.43;;;1.60;;
80111;SDS011;69421;51.062;3.728;2024-02-16T02:04:00;2.45;;;1.85;;
80111;SDS011;69421;51.062;3.728;2024-02-16T02:06:25;5.35;;;2.25;;
80111;SDS011;69421;51.062;3.728;2024-02-16T02:08:51;4.43;;;1.98;;
80111;SDS011;69421;51.062;3.728;2024-02-16T02:11:16;3.90;;;1.98;;
80111;SDS011;69421;51.062;3.728;2024-02-16T02:13:42;3.00;;;2.17;;
80111;SDS011;69421;51.062;3.728;2024-02-16T02:16:07;4.03;;;2.50;;
80111;SDS011;69421;51.062;3.728;2024-02-16T02:18:35;2.58;;;1.90;;
80111;SDS011;69421;51.062;3.728;2024-02-16T02:21:00;3.30;;;2.03;;
80111;SDS011;69421;51.062;3.728;2024-02-16T02:23:26;3.00;;;2.20;;
80111;SDS011;69421;51.062;3.728;2024-02-16T02:25:51;4.30;;;1.97;;
80111;SDS011;69421;51.062;3.728;2024-02-16T02:28:16;4.33;;;1.97;;
80111;SDS011;69421;51.062;3.728;2024-02-16T02:30:43;3.47;;;2.13;;
80111;SDS011;69421;51.062;3.728;2024-02-16T02:33:10;2.45;;;1.52;;
80111;SDS011;69421;51.062;3.728;2024-02-16T02:35:37;4.40;;;2.13;;
80111;SDS011;69421;51.062;3.728;2024-02-16T02:38:03;4.68;;;2.10;;
80111;SDS011;69421;51.062;3.728;2024-02-16T02:40:29;3.60;;;1.88;;
80111;SDS011;69421;51.062;3.728;2024-02-16T02:42:55;4.60;;;2.28;;
80111;SDS011;69421;51.062;3.728;2024-02-16T02:45:20;4.57;;;2.88;;
80111;SDS011;69421;51.062;3.728;2024-02-16T02:47:46;2.95;;;1.90;;
80111;SDS011;69421;51.062;3.728;2024-02-16T02:50:11;3.63;;;2.33;;
80111;SDS011;69421;51.062;3.728;2024-02-16T02:52:37;2.08;;;1.50;;
80111;SDS011;69421;51.062;3.728;2024-02-16T02:55:03;6.47;;;1.90;;
80111;SDS011;69421;51.062;3.728;2024-02-16T02:57:29;2.65;;;1.90;;
80111;SDS011;69421;51.062;3.728;2024-02-16T03:00:02;2.70;;;1.60;;
80111;SDS011;69421;51.062;3.728;2024-02-16T03:02:36;2.50;;;1.40;;
80111;SDS011;69421;51.062;3.728;2024-02-16T03:05:03;4.22;;;2.22;;
80111;SDS011;69421;51.062;3.728;2024-02-16T03:07:28;3.25;;;2.28;;
80111;SDS011;69421;51.062;3.728;2024-02-16T03:09:54;3.27;;;2.00;;
80111;SDS011;69421;51.062;3.728;2024-02-16T03:12:19;5.18;;;2.03;;
80111;SDS011;69421;51.062;3.728;2024-02-16T03:14:45;3.05;;;1.95;;
80111;SDS011;69421;51.062;3.728;2024-02-16T03:17:10;4.05;;;1.80;;
80111;SDS011;69421;51.062;3.728;2024-02-16T03:19:36;2.13;;;1.75;;
80111;SDS011;69421;51.062;3.728;2024-02-16T03:22:01;4.83;;;1.70;;
80111;SDS011;69421;51.062;3.728;2024-02-16T03:24:27;3.88;;;1.65;;
80111;SDS011;69421;51.062;3.728;2024-02-16T03:26:53;3.95;;;1.48;;
80111;SDS011;69421;51.062;3.728;2024-02-16T03:29:18;2.67;;;1.70;;
80111;SDS011;69421;51.062;3.728;2024-02-16T03:31:43;2.53;;;1.80;;
80111;SDS011;69421;51.062;3.728;2024-02-16T03:34:09;3.50;;;1.70;;
80111;SDS011;69421;51.062;3.728;2024-02-16T03:36:34;4.75;;;1.70;;
80111;SDS011;69421;51.062;3.728;2024-02-16T03:39:00;4.07;;;1.80;;
80111;SDS011;69421;51.062;3.728;2024-02-16T03:41:25;4.35;;;2.38;;
80111;SDS011;69421;51.062;3.728;2024-02-16T03:43:51;4.90;;;1.73;;
80111;SDS011;69421;51.062;3.728;2024-02-16T03:46:16;3.20;;;1.88;;
80111;SDS011;69421;51.062;3.728;2024-02-16T03:48:42;4.13;;;1.55;;
80111;SDS011;69421;51.062;3.728;2024-02-16T03:51:08;5.07;;;1.85;;
80111;SDS011;69421;51.062;3.728;2024-02-16T03:53:33;3.47;;;1.43;;
80111;SDS011;69421;51.062;3.728;2024-02-16T03:55:59;3.63;;;2.05;;
80111;SDS011;69421;51.062;3.728;2024-02-16T03:58:25;3.03;;;2.35;;
80111;SDS011;69421;51.062;3.728;2024-02-16T04:00:50;5.43;;;1.58;;
80111;SDS011;69421;51.062;3.728;2024-02-16T04:03:17;3.15;;;1.92;;
80111;SDS011;69421;51.062;3.728;2024-02-16T04:05:43;5.60;;;1.80;;
80111;SDS011;69421;51.062;3.728;2024-02-16T04:08:09;2.70;;;1.90;;
80111;SDS011;69421;51.062;3.728;2024-02-16T04:10:35;2.33;;;1.77;;
80111;SDS011;69421;51.062;3.728;2024-02-16T04:13:01;4.47;;;1.70;;
80111;SDS011;69421;51.062;3.728;2024-02-16T04:15:26;3.05;;;1.90;;
80111;SDS011;69421;51.062;3.728;2024-02-16T04:17:52;7.68;;;1.65;;
80111;SDS011;69421;51.062;3.728;2024-02-16T04:20:18;6.15;;;2.10;;
80111;SDS011;69421;51.062;3.728;2024-02-16T04:22:44;3.42;;;1.63;;
80111;SDS011;69421;51.062;3.728;2024-02-16T04:25:09;3.33;;;1.70;;
80111;SDS011;69421;51.062;3.728;2024-02-16T04:27:35;3.78;;;1.88;;
80111;SDS011;69421;51.062;3.728;2024-02-16T04:30:01;2.70;;;1.58;;
80111;SDS011;69421;51.062;3.728;2024-02-16T04:32:27;4.43;;;2.08;;
80111;SDS011;69421;51.062;3.728;2024-02-16T04:34:53;3.67;;;2.13;;
80111;SDS011;69421;51.062;3.728;2024-02-16T04:37:21;4.00;;;2.13;;
80111;SDS011;69421;51.062;3.728;2024-02-16T04:39:50;2.90;;;1.65;;
80111;SDS011;69421;51.062;3.728;2024-02-16T04:42:16;3.25;;;1.67;;
80111;SDS011;69421;51.062;3.728;2024-02-16T04:44:42;4.53;;;2.30;;
80111;SDS011;69421;51.062;3.728;2024-02-16T04:47:07;3.55;;;2.17;;
80111;SDS011;69421;51.062;3.728;2024-02-16T04:49:34;2.97;;;1.90;;
80111;SDS011;69421;51.062;3.728;2024-02-16T04:51:59;4.40;;;2.50;;
80111;SDS011;69421;51.062;3.728;2024-02-16T04:54:25;4.50;;;2.67;;
80111;SDS011;69421;51.062;3.728;2024-02-16T04:56:50;2.83;;;1.95;;
80111;SDS011;69421;51.062;3.728;2024-02-16T04:59:16;5.88;;;1.70;;
80111;SDS011;69421;51.062;3.728;2024-02-16T05:01:44;4.55;;;1.85;;
80111;SDS011;69421;51.062;3.728;2024-02-16T05:04:10;8.88;;;2.53;;
80111;SDS011;69421;51.062;3.728;2024-02-16T05:06:38;4.43;;;1.63;;
80111;SDS011;69421;51.062;3.728;2024-02-16T05:09:07;4.03;;;2.00;;
80111;SDS011;69421;51.062;3.728;2024-02-16T05:11:32;3.17;;;2.03;;
80111;SDS011;69421;51.062;3.728;2024-02-16T05:13:58;4.80;;;2.45;;
80111;SDS011;69421;51.062;3.728;2024-02-16T05:16:24;3.53;;;1.90;;
80111;SDS011;69421;51.062;3.728;2024-02-16T05:18:49;5.38;;;2.13;;
80111;SDS011;69421;51.062;3.728;2024-02-16T05:21:15;3.42;;;2.45;;
80111;SDS011;69421;51.062;3.728;2024-02-16T05:23:41;5.97;;;1.85;;
80111;SDS011;69421;51.062;3.728;2024-02-16T05:26:06;3.43;;;2.10;;
80111;SDS011;69421;51.062;3.728;2024-02-16T05:28:32;5.00;;;2.40;;
80111;SDS011;69421;51.062;3.728;2024-02-16T05:30:57;4.18;;;1.88;;
80111;SDS011;69421;51.062;3.728;2024-02-16T05:33:24;3.85;;;2.10;;
80111;SDS011;69421;51.062;3.728;2024-02-16T05:35:49;4.93;;;2.40;;
80111;SDS011;69421;51.062;3.728;2024-02-16T05:38:20;5.90;;;2.30;;
80111;SDS011;69421;51.062;3.728;2024-02-16T05:40:57;5.03;;;2.00;;
80111;SDS011;69421;51.062;3.728;2024-02-16T05:43:22;3.05;;;1.70;;
80111;SDS011;69421;51.062;3.728;2024-02-16T05:45:48;3.92;;;2.70;;
80111;SDS011;69421;51.062;3.728;2024-02-16T05:48:14;3.67;;;1.58;;
80111;SDS011;69421;51.062;3.728;2024-02-16T05:50:40;3.53;;;2.17;;
80111;SDS011;69421;51.062;3.728;2024-02-16T05:53:06;7.82;;;2.22;;
80111;SDS011;69421;51.062;3.728;2024-02-16T05:55:35;6.18;;;2.72;;
80111;SDS011;69421;51.062;3.728;2024-02-16T05:58:01;3.95;;;2.08;;
80111;SDS011;69421;51.062;3.728;2024-02-16T06:00:26;4.53;;;2.38;;
80111;SDS011;69421;51.062;3.728;2024-02-16T06:02:52;3.72;;;1.83;;
80111;SDS011;69421;51.062;3.728;2024-02-16T06:05:18;6.70;;;2.47;;
80111;SDS011;69421;51.062;3.728;2024-02-16T06:07:45;3.17;;;2.00;;
80111;SDS011;69421;51.062;3.728;2024-02-16T06:10:10;5.18;;;2.55;;
80111;SDS011;69421;51.062;3.728;2024-02-16T06:12:37;3.42;;;2.38;;
80111;SDS011;69421;51.062;3.728;2024-02-16T06:15:03;6.88;;;2.50;;
80111;SDS011;69421;51.062;3.728;2024-02-16T06:17:30;5.22;;;2.45;;
80111;SDS011;69421;51.062;3.728;2024-02-16T06:19:55;4.95;;;2.95;;
80111;SDS011;69421;51.062;3.728;2024-02-16T06:22:20;4.75;;;2.25;;
80111;SDS011;69421;51.062;3.728;2024-02-16T06:24:46;4.85;;;2.45;;
80111;SDS011;69421;51.062;3.728;2024-02-16T06:27:11;4.97;;;2.50;;
80111;SDS011;69421;51.062;3.728;2024-02-16T06:29:37;5.35;;;2.17;;
80111;SDS011;69421;51.062;3.728;2024-02-16T06:32:02;5.77;;;2.43;;
80111;SDS011;69421;51.062;3.728;2024-02-16T06:34:28;5.05;;;2.38;;
80111;SDS011;69421;51.062;3.728;2024-02-16T06:36:54;6.72;;;2.90;;
80111;SDS011;69421;51.062;3.728;2024-02-16T06:39:19;5.17;;;2.33;;
80111;SDS011;69421;51.062;3.728;2024-02-16T06:41:45;6.95;;;3.00;;
80111;SDS011;69421;51.062;3.728;2024-02-16T06:44:14;3.85;;;2.58;;
80111;SDS011;69421;51.062;3.728;2024-02-16T06:46:40;4.45;;;2.75;;
80111;SDS011;69421;51.062;3.728;2024-02-16T06:49:06;5.07;;;2.75;;
80111;SDS011;69421;51.062;3.728;2024-02-16T06:51:31;5.97;;;2.47;;
80111;SDS011;69421;51.062;3.728;2024-02-16T06:53:57;5.90;;;3.13;;
80111;SDS011;69421;51.062;3.728;2024-02-16T06:56:22;4.47;;;2.37;;
80111;SDS011;69421;51.062;3.728;2024-02-16T06:58:48;4.55;;;2.65;;
80111;SDS011;69421;51.062;3.728;2024-02-16T07:01:13;7.80;;;2.40;;
80111;SDS011;69421;51.062;3.728;2024-02-16T07:03:39;5.32;;;2.20;;
80111;SDS011;69421;51.062;3.728;2024-02-16T07:06:05;4.28;;;2.22;;
80111;SDS011;69421;51.062;3.728;2024-02-16T07:08:35;5.35;;;2.67;;
80111;SDS011;69421;51.062;3.728;2024-02-16T07:11:03;4.30;;;2.22;;
80111;SDS011;69421;51.062;3.728;2024-02-16T07:13:30;6.00;;;2.70;;
80111;SDS011;69421;51.062;3.728;2024-02-16T07:15:56;8.02;;;2.83;;
80111;SDS011;69421;51.062;3.728;2024-02-16T07:18:22;4.82;;;2.53;;
80111;SDS011;69421;51.062;3.728;2024-02-16T07:20:47;4.57;;;2.90;;
80111;SDS011;69421;51.062;3.728;2024-02-16T07:23:13;4.27;;;2.67;;
80111;SDS011;69421;51.062;3.728;2024-02-16T07:25:40;4.03;;;2.28;;
80111;SDS011;69421;51.062;3.728;2024-02-16T07:28:06;3.58;;;2.40;;
80111;SDS011;69421;51.062;3.728;2024-02-16T07:30:33;4.85;;;2.53;;
80111;SDS011;69421;51.062;3.728;2024-02-16T07:32:58;5.97;;;2.78;;
80111;SDS011;69421;51.062;3.728;2024-02-16T07:35:24;4.97;;;2.90;;
80111;SDS011;69421;51.062;3.728;2024-02-16T07:37:50;4.37;;;2.30;;
80111;SDS011;69421;51.062;3.728;2024-02-16T07:40:18;5.03;;;2.50;;
80111;SDS011;69421;51.062;3.728;2024-02-16T07:42:45;5.10;;;2.83;;
80111;SDS011;69421;51.062;3.728;2024-02-16T07:45:10;4.95;;;2.80;;
80111;SDS011;69421;51.062;3.728;2024-02-16T07:47:37;4.80;;;2.22;;
80111;SDS011;69421;51.062;3.728;2024-02-16T07:50:03;4.20;;;2.67;;
80111;SDS011;69421;51.062;3.728;2024-02-16T07:52:31;6.35;;;3.28;;
80111;SDS011;69421;51.062;3.728;2024-02-16T07:54:57;5.00;;;3.15;;
80111;SDS011;69421;51.062;3.728;2024-02-16T07:57:22;6.35;;;2.70;;
80111;SDS011;69421;51.062;3.728;2024-02-16T07:59:48;4.65;;;2.65;;
80111;SDS011;69421;51.062;3.728;2024-02-16T08:02:13;5.60;;;2.83;;
80111;SDS011;69421;51.062;3.728;2024-02-16T08:04:41;4.35;;;2.97;;
80111;SDS011;69421;51.062;3.728;2024-02-16T08:07:07;4.32;;;2.58;;
80111;SDS011;69421;51.062;3.728;2024-02-16T08:09:33;5.85;;;2.90;;
80111;SDS011;69421;51.062;3.728;2024-02-16T08:11:58;4.75;;;2.63;;
80111;SDS011;69421;51.062;3.728;2024-02-16T08:14:25;5.22;;;2.70;;
80111;SDS011;69421;51.062;3.728;2024-02-16T08:16:50;4.70;;;3.15;;
80111;SDS011;69421;51.062;3.728;2024-02-16T08:19:16;6.65;;;2.50;;
80111;SDS011;69421;51.062;3.728;2024-02-16T08:21:41;5.53;;;2.87;;
80111;SDS011;69421;51.062;3.728;2024-02-16T08:24:06;5.80;;;2.67;;
80111;SDS011;69421;51.062;3.728;2024-02-16T08:26:32;5.10;;;2.78;;
80111;SDS011;69421;51.062;3.728;2024-02-16T08:28:58;5.13;;;3.25;;
80111;SDS011;69421;51.062;3.728;2024-02-16T08:31:23;3.87;;;2.43;;
80111;SDS011;69421;51.062;3.728;2024-02-16T08:33:49;6.55;;;2.72;;
80111;SDS011;69421;51.062;3.728;2024-02-16T08:36:14;7.97;;;2.90;;
80111;SDS011;69421;51.062;3.728;2024-02-16T08:38:40;6.45;;;3.60;;
80111;SDS011;69421;51.062;3.728;2024-02-16T08:41:06;4.65;;;2.88;;
80111;SDS011;69421;51.062;3.728;2024-02-16T08:43:31;4.85;;;2.72;;
80111;SDS011;69421;51.062;3.728;2024-02-16T08:45:57;6.87;;;3.30;;
80111;SDS011;69421;51.062;3.728;2024-02-16T08:48:24;8.17;;;3.67;;
80111;SDS011;69421;51.062;3.728;2024-02-16T08:50:49;6.25;;;3.20;;
80111;SDS011;69421;51.062;3.728;2024-02-16T08:53:15;4.45;;;3.20;;
80111;SDS011;69421;51.062;3.728;2024-02-16T08:55:41;7.03;;;3.33;;
80111;SDS011;69421;51.062;3.728;2024-02-16T08:58:07;13.75;;;3.88;;
80111;SDS011;69421;51.062;3.728;2024-02-16T09:00:33;5.60;;;3.05;;
80111;SDS011;69421;51.062;3.728;2024-02-16T09:02:59;9.10;;;3.10;;
80111;SDS011;69421;51.062;3.728;2024-02-16T09:05:27;8.30;;;3.20;;
80111;SDS011;69421;51.062;3.728;2024-02-16T09:07:53;9.55;;;3.38;;
80111;SDS011;69421;51.062;3.728;2024-02-16T09:10:19;7.75;;;3.72;;
80111;SDS011;69421;51.062;3.728;2024-02-16T09:12:44;7.93;;;3.60;;
80111;SDS011;69421;51.062;3.728;2024-02-16T09:15:10;10.30;;;3.70;;
80111;SDS011;69421;51.062;3.728;2024-02-16T09:17:37;11.45;;;4.28;;
80111;SDS011;69421;51.062;3.728;2024-02-16T09:20:02;8.35;;;4.32;;
80111;SDS011;69421;51.062;3.728;2024-02-16T09:22:29;8.48;;;3.75;;
80111;SDS011;69421;51.062;3.728;2024-02-16T09:24:54;8.70;;;4.30;;
80111;SDS011;69421;51.062;3.728;2024-02-16T09:27:25;7.15;;;4.68;;
80111;SDS011;69421;51.062;3.728;2024-02-16T09:29:52;7.90;;;4.50;;
80111;SDS011;69421;51.062;3.728;2024-02-16T09:32:17;10.13;;;5.25;;
80111;SDS011;69421;51.062;3.728;2024-02-16T09:34:43;10.10;;;5.97;;
80111;SDS011;69421;51.062;3.728;2024-02-16T09:37:08;9.63;;;5.20;;
80111;SDS011;69421;51.062;3.728;2024-02-16T09:39:33;10.93;;;5.90;;
80111;SDS011;69421;51.062;3.728;2024-02-16T09:41:59;10.90;;;5.78;;
80111;SDS011;69421;51.062;3.728;2024-02-16T09:44:25;10.50;;;6.45;;
80111;SDS011;69421;51.062;3.728;2024-02-16T09:46:52;12.73;;;6.50;;
80111;SDS011;69421;51.062;3.728;2024-02-16T09:49:19;9.93;;;6.78;;
80111;SDS011;69421;51.062;3.728;2024-02-16T09:51:44;14.10;;;6.65;;
80111;SDS011;69421;51.062;3.728;2024-02-16T09:54:10;11.98;;;7.32;;
80111;SDS011;69421;51.062;3.728;2024-02-16T09:56:36;12.38;;;6.70;;
80111;SDS011;69421;51.062;3.728;2024-02-16T09:59:02;12.27;;;7.75;;
80111;SDS011;69421;51.062;3.728;2024-02-16T10:01:27;14.02;;;8.10;;
80111;SDS011;69421;51.062;3.728;2024-02-16T10:03:54;14.40;;;8.60;;
80111;SDS011;69421;51.062;3.728;2024-02-16T10:06:30;17.00;;;9.63;;
80111;SDS011;69421;51.062;3.728;2024-02-16T10:08:56;13.57;;;8.70;;
80111;SDS011;69421;51.062;3.728;2024-02-16T10:11:26;34.53;;;19.58;;
80111;SDS011;69421;51.062;3.728;2024-02-16T10:16:24;38.78;;;26.77;;
80111;SDS011;69421;51.062;3.728;2024-02-16T10:18:51;44.22;;;29.15;;
80111;SDS011;69421;51.062;3.728;2024-02-16T10:21:26;25.92;;;18.50;;
80111;SDS011;69421;51.062;3.728;2024-02-16T10:24:02;28.30;;;19.40;;
80111;SDS011;69421;51.062;3.728;2024-02-16T10:26:31;64.25;;;37.30;;
80111;SDS011;69421;51.062;3.728;2024-02-16T10:28:57;112.35;;;67.97;;
80111;SDS011;69421;51.062;3.728;2024-02-16T10:31:26;40.70;;;29.95;;
80111;SDS011;69421;51.062;3.728;2024-02-16T10:34:02;24.33;;;18.17;;
80111;SDS011;69421;51.062;3.728;2024-02-16T10:36:32;37.97;;;33.88;;
80111;SDS011;69421;51.062;3.728;2024-02-16T10:38:58;16.73;;;12.90;;
80111;SDS011;69421;51.062;3.728;2024-02-16T10:41:27;27.58;;;21.25;;
80111;SDS011;69421;51.062;3.728;2024-02-16T10:43:54;25.35;;;17.67;;
80111;SDS011;69421;51.062;3.728;2024-02-16T10:46:20;22.33;;;16.17;;
80111;SDS011;69421;51.062;3.728;2024-02-16T10:48:46;29.10;;;19.88;;
80111;SDS011;69421;51.062;3.728;2024-02-16T10:51:12;23.70;;;14.85;;
80111;SDS011;69421;51.062;3.728;2024-02-16T10:53:39;24.67;;;16.88;;
80111;SDS011;69421;51.062;3.728;2024-02-16T10:56:06;27.27;;;17.55;;
80111;SDS011;69421;51.062;3.728;2024-02-16T10:58:32;30.02;;;17.77;;
80111;SDS011;69421;51.062;3.728;2024-02-16T11:01:07;28.92;;;16.05;;
80111;SDS011;69421;51.062;3.728;2024-02-16T11:03:34;24.63;;;18.85;;
80111;SDS011;69421;51.062;3.728;2024-02-16T11:06:11;25.65;;;14.23;;
80111;SDS011;69421;51.062;3.728;2024-02-16T11:08:41;22.60;;;16.35;;
80111;SDS011;69421;51.062;3.728;2024-02-16T11:11:07;27.45;;;15.52;;
80111;SDS011;69421;51.062;3.728;2024-02-16T11:13:36;28.85;;;19.10;;
80111;SDS011;69421;51.062;3.728;2024-02-16T11:18:28;39.95;;;26.23;;
80111;SDS011;69421;51.062;3.728;2024-02-16T11:20:54;20.42;;;13.05;;
80111;SDS011;69421;51.062;3.728;2024-02-16T11:23:29;22.30;;;14.73;;
80111;SDS011;69421;51.062;3.728;2024-02-16T11:26:02;18.27;;;10.98;;
80111;SDS011;69421;51.062;3.728;2024-02-16T11:28:32;17.23;;;10.77;;
80111;SDS011;69421;51.062;3.728;2024-02-16T11:30:58;14.93;;;9.15;;
80111;SDS011;69421;51.062;3.728;2024-02-16T11:33:25;21.75;;;13.30;;
80111;SDS011;69421;51.062;3.728;2024-02-16T11:35:56;18.95;;;12.45;;
80111;SDS011;69421;51.062;3.728;2024-02-16T11:38:22;16.25;;;10.88;;
80111;SDS011;69421;51.062;3.728;2024-02-16T11:41:02;15.70;;;8.98;;
80111;SDS011;69421;51.062;3.728;2024-02-16T11:43:29;10.70;;;7.78;;
80111;SDS011;69421;51.062;3.728;2024-02-16T11:45:55;18.23;;;8.95;;
80111;SDS011;69421;51.062;3.728;2024-02-16T11:48:21;15.60;;;9.98;;
80111;SDS011;69421;51.062;3.728;2024-02-16T11:50:48;14.30;;;8.68;;
80111;SDS011;69421;51.062;3.728;2024-02-16T11:53:15;20.63;;;14.95;;
80111;SDS011;69421;51.062;3.728;2024-02-16T11:55:46;14.82;;;11.30;;
80111;SDS011;69421;51.062;3.728;2024-02-16T11:58:12;25.65;;;20.58;;
80111;SDS011;69421;51.062;3.728;2024-02-16T12:00:39;10.02;;;7.45;;
80111;SDS011;69421;51.062;3.728;2024-02-16T12:03:06;12.23;;;6.72;;
80111;SDS011;69421;51.062;3.728;2024-02-16T12:05:32;11.30;;;7.43;;
80111;SDS011;69421;51.062;3.728;2024-02-16T12:07:58;20.00;;;11.55;;
80111;SDS011;69421;51.062;3.728;2024-02-16T12:10:24;21.73;;;14.35;;
80111;SDS011;69421;51.062;3.728;2024-02-16T12:12:50;16.65;;;10.88;;
80111;SDS011;69421;51.062;3.728;2024-02-16T12:15:15;18.35;;;10.38;;
80111;SDS011;69421;51.062;3.728;2024-02-16T12:17:43;13.40;;;7.57;;
80111;SDS011;69421;51.062;3.728;2024-02-16T12:20:11;10.82;;;6.63;;
80111;SDS011;69421;51.062;3.728;2024-02-16T12:22:38;10.88;;;7.15;;
80111;SDS011;69421;51.062;3.728;2024-02-16T12:25:04;9.95;;;7.97;;
80111;SDS011;69421;51.062;3.728;2024-02-16T12:27:30;9.02;;;7.05;;
80111;SDS011;69421;51.062;3.728;2024-02-16T12:29:55;7.47;;;5.97;;
80111;SDS011;69421;51.062;3.728;2024-02-16T12:32:21;8.90;;;5.35;;
80111;SDS011;69421;51.062;3.728;2024-02-16T12:34:46;17.80;;;11.90;;
80111;SDS011;69421;51.062;3.728;2024-02-16T12:37:12;12.30;;;9.63;;
80111;SDS011;69421;51.062;3.728;2024-02-16T12:39:37;9.60;;;4.78;;
80111;SDS011;69421;51.062;3.728;2024-02-16T12:42:03;6.07;;;4.63;;
80111;SDS011;69421;51.062;3.728;2024-02-16T12:44:29;6.60;;;4.75;;
80111;SDS011;69421;51.062;3.728;2024-02-16T12:46:55;6.47;;;5.07;;
80111;SDS011;69421;51.062;3.728;2024-02-16T12:49:21;8.15;;;6.13;;
80111;SDS011;69421;51.062;3.728;2024-02-16T12:51:50;6.10;;;5.22;;
80111;SDS011;69421;51.062;3.728;2024-02-16T12:54:16;5.15;;;4.65;;
80111;SDS011;69421;51.062;3.728;2024-02-16T12:56:44;5.50;;;4.30;;
80111;SDS011;69421;51.062;3.728;2024-02-16T12:59:10;5.43;;;4.72;;
80111;SDS011;69421;51.062;3.728;2024-02-16T13:01:36;7.18;;;6.22;;
80111;SDS011;69421;51.062;3.728;2024-02-16T13:04:02;4.95;;;3.75;;
80111;SDS011;69421;51.062;3.728;2024-02-16T13:06:29;5.63;;;3.20;;
80111;SDS011;69421;51.062;3.728;2024-02-16T13:08:54;4.37;;;3.93;;
80111;SDS011;69421;51.062;3.728;2024-02-16T13:11:20;4.00;;;3.60;;
80111;SDS011;69421;51.062;3.728;2024-02-16T13:13:48;5.18;;;4.32;;
80111;SDS011;69421;51.062;3.728;2024-02-16T13:16:14;4.50;;;3.40;;
80111;SDS011;69421;51.062;3.728;2024-02-16T13:18:39;5.15;;;2.92;;
80111;SDS011;69421;51.062;3.728;2024-02-16T13:21:06;6.18;;;3.50;;
80111;SDS011;69421;51.062;3.728;2024-02-16T13:23:31;4.63;;;3.35;;
80111;SDS011;69421;51.062;3.728;2024-02-16T13:25:57;7.65;;;5.50;;
80111;SDS011;69421;51.062;3.728;2024-02-16T13:28:24;7.78;;;6.03;;
80111;SDS011;69421;51.062;3.728;2024-02-16T13:30:50;8.35;;;6.15;;
80111;SDS011;69421;51.062;3.728;2024-02-16T13:33:15;8.27;;;3.97;;
80111;SDS011;69421;51.062;3.728;2024-02-16T13:35:41;6.68;;;3.58;;
80111;SDS011;69421;51.062;3.728;2024-02-16T13:38:06;4.63;;;4.13;;
80111;SDS011;69421;51.062;3.728;2024-02-16T13:40:32;7.38;;;5.60;;
80111;SDS011;69421;51.062;3.728;2024-02-16T13:42:59;4.60;;;3.83;;
80111;SDS011;69421;51.062;3.728;2024-02-16T13:45:45;5.40;;;4.15;;
80111;SDS011;69421;51.062;3.728;2024-02-16T13:48:13;3.50;;;2.28;;
80111;SDS011;69421;51.062;3.728;2024-02-16T13:50:38;3.95;;;2.03;;
80111;SDS011;69421;51.062;3.728;2024-02-16T13:53:03;4.47;;;2.20;;
80111;SDS011;69421;51.062;3.728;2024-02-16T13:55:29;3.67;;;1.88;;
80111;SDS011;69421;51.062;3.728;2024-02-16T13:57:54;4.35;;;3.38;;
80111;SDS011;69421;51.062;3.728;2024-02-16T14:00:21;8.23;;;5.72;;
80111;SDS011;69421;51.062;3.728;2024-02-16T14:02:46;4.32;;;2.47;;
80111;SDS011;69421;51.062;3.728;2024-02-16T14:05:12;5.43;;;4.00;;
80111;SDS011;69421;51.062;3.728;2024-02-16T14:07:37;8.93;;;6.93;;
80111;SDS011;69421;51.062;3.728;2024-02-16T14:10:03;5.85;;;4.70;;
80111;SDS011;69421;51.062;3.728;2024-02-16T14:12:28;2.97;;;2.00;;
80111;SDS011;69421;51.062;3.728;2024-02-16T14:14:54;4.17;;;3.20;;
80111;SDS011;69421;51.062;3.728;2024-02-16T14:17:19;4.63;;;2.83;;
80111;SDS011;69421;51.062;3.728;2024-02-16T14:19:45;3.47;;;2.28;;
80111;SDS011;69421;51.062;3.728;2024-02-16T14:22:10;4.57;;;2.23;;
80111;SDS011;69421;51.062;3.728;2024-02-16T14:24:37;2.92;;;2.20;;
80111;SDS011;69421;51.062;3.728;2024-02-16T14:27:03;5.47;;;3.40;;
80111;SDS011;69421;51.062;3.728;2024-02-16T14:29:28;3.78;;;2.53;;
80111;SDS011;69421;51.062;3.728;2024-02-16T14:31:54;4.43;;;2.47;;
80111;SDS011;69421;51.062;3.728;2024-02-16T14:34:19;10.13;;;7.88;;
80111;SDS011;69421;51.062;3.728;2024-02-16T14:36:45;6.43;;;2.37;;
80111;SDS011;69421;51.062;3.728;2024-02-16T14:39:10;3.25;;;2.00;;
80111;SDS011;69421;51.062;3.728;2024-02-16T14:41:36;6.18;;;4.25;;